Hauptseite
METAR-TAF:

METAR-TAF

Flughäfen :

Flughafen Târgu Mureș

Târgu Mureş, Rumänien

Breite: 46-32N, Länge: 024-32E, Höhe: 308 m

Beobachtung

Neuester Wetterbericht von vor 25 Minuten, um 20:30 UTC
Windstille
Temperatur 10°C
Luftfeuchtigkeit 76%
Luftdruck 1018 hPa
Sichtweite: 7000 m

METAR: LRTM 182030Z 00000KT 7000 NSC 10/06 Q1018

Zeit: 23:55 (20:55 UTC)

Prognose

Neuester Wetterbericht von vor 3 Stunden und 55 Minuten, um 17:00 UTC
Gültige Prognose vom 18 um 18 UTC bis 19 um 03 UTC
Wind 4 kt aus unterschiedlichen Richtungen
Sichtweite 10 km oder mehr
keine Wolken unter 1500 m und keine Kumulonimbus oder Gewitterwolken

TAF: LRTM 181700Z 1818/1903 VRB04KT CAVOK

Wetterbeobachtungen und Prognosen von mehr als 4000 Flughäfen (METAR und TAF Bericht).

Die verfügbaren Stationen werden durch gelbe und rote Markierungen auf der Karte dargestellt.

Führen Sie die Maus auf sie, um den Namen der Station zu sehen.

Darauf klicken, um die Beobachtung von Wetterbeobachtungen und Prognosen zu sehen.

Um die Karte zu ändern : klicken Sie auf den grünen Tasten mit einem schwarzen Kreuz Zum Vergrößern, auf den grünen Button mit einem Gedankenstrich zu verkleinern, oder auf die grünen Pfeile für benachbarte Karten.


METAR-TAF: